sensor_id;sensor_type;location;lat;lon;timestamp;P1;durP1;ratioP1;P2;durP2;ratioP2
74908;SDS011;63468;52.058;4.824;2023-05-10T00:02:10;78.30;;;49.58;;
74908;SDS011;63468;52.058;4.824;2023-05-10T00:04:35;80.97;;;50.22;;
74908;SDS011;63468;52.058;4.824;2023-05-10T00:07:01;69.05;;;45.95;;
74908;SDS011;63468;52.058;4.824;2023-05-10T00:09:26;75.38;;;49.60;;
74908;SDS011;63468;52.058;4.824;2023-05-10T00:11:52;76.28;;;51.50;;
74908;SDS011;63468;52.058;4.824;2023-05-10T00:14:17;71.63;;;51.25;;
74908;SDS011;63468;52.058;4.824;2023-05-10T00:16:43;68.05;;;49.03;;
74908;SDS011;63468;52.058;4.824;2023-05-10T00:19:08;68.65;;;45.33;;
74908;SDS011;63468;52.058;4.824;2023-05-10T00:21:33;63.10;;;44.28;;
74908;SDS011;63468;52.058;4.824;2023-05-10T00:23:59;57.90;;;42.92;;
74908;SDS011;63468;52.058;4.824;2023-05-10T00:26:25;65.30;;;44.70;;
74908;SDS011;63468;52.058;4.824;2023-05-10T00:28:50;72.25;;;48.15;;
74908;SDS011;63468;52.058;4.824;2023-05-10T00:31:15;113.57;;;50.28;;
74908;SDS011;63468;52.058;4.824;2023-05-10T00:33:41;87.78;;;43.78;;
74908;SDS011;63468;52.058;4.824;2023-05-10T00:36:06;68.93;;;42.50;;
74908;SDS011;63468;52.058;4.824;2023-05-10T00:38:32;82.32;;;48.00;;
74908;SDS011;63468;52.058;4.824;2023-05-10T00:40:58;86.18;;;48.47;;
74908;SDS011;63468;52.058;4.824;2023-05-10T00:43:23;91.35;;;49.97;;
74908;SDS011;63468;52.058;4.824;2023-05-10T00:45:48;100.47;;;50.28;;
74908;SDS011;63468;52.058;4.824;2023-05-10T00:48:14;105.90;;;48.78;;
74908;SDS011;63468;52.058;4.824;2023-05-10T00:50:40;98.93;;;48.92;;
74908;SDS011;63468;52.058;4.824;2023-05-10T00:53:05;103.60;;;52.42;;
74908;SDS011;63468;52.058;4.824;2023-05-10T00:55:31;98.85;;;50.00;;
74908;SDS011;63468;52.058;4.824;2023-05-10T00:57:56;115.32;;;55.70;;
74908;SDS011;63468;52.058;4.824;2023-05-10T01:00:21;111.65;;;53.28;;
74908;SDS011;63468;52.058;4.824;2023-05-10T01:02:47;97.13;;;52.55;;
74908;SDS011;63468;52.058;4.824;2023-05-10T01:05:12;104.43;;;53.88;;
74908;SDS011;63468;52.058;4.824;2023-05-10T01:07:38;108.82;;;56.22;;
74908;SDS011;63468;52.058;4.824;2023-05-10T01:10:05;107.25;;;52.45;;
74908;SDS011;63468;52.058;4.824;2023-05-10T01:12:31;100.80;;;49.63;;
74908;SDS011;63468;52.058;4.824;2023-05-10T01:14:56;90.57;;;49.45;;
74908;SDS011;63468;52.058;4.824;2023-05-10T01:17:22;75.47;;;49.58;;
74908;SDS011;63468;52.058;4.824;2023-05-10T01:19:48;97.82;;;53.72;;
74908;SDS011;63468;52.058;4.824;2023-05-10T01:30:42;100.38;;;52.47;;
74908;SDS011;63468;52.058;4.824;2023-05-10T01:35:57;96.00;;;53.45;;
74908;SDS011;63468;52.058;4.824;2023-05-10T01:38:47;107.32;;;55.28;;
74908;SDS011;63468;52.058;4.824;2023-05-10T01:41:26;121.78;;;57.03;;
74908;SDS011;63468;52.058;4.824;2023-05-10T01:46:37;118.38;;;57.28;;
74908;SDS011;63468;52.058;4.824;2023-05-10T01:49:03;115.40;;;59.33;;
74908;SDS011;63468;52.058;4.824;2023-05-10T01:51:36;123.70;;;60.88;;
74908;SDS011;63468;52.058;4.824;2023-05-10T01:54:05;117.32;;;59.50;;
74908;SDS011;63468;52.058;4.824;2023-05-10T01:56:31;133.43;;;61.03;;
74908;SDS011;63468;52.058;4.824;2023-05-10T01:58:57;112.75;;;58.35;;
74908;SDS011;63468;52.058;4.824;2023-05-10T02:01:23;114.18;;;56.75;;
74908;SDS011;63468;52.058;4.824;2023-05-10T02:03:51;119.25;;;58.28;;
74908;SDS011;63468;52.058;4.824;2023-05-10T02:06:17;115.47;;;53.88;;
74908;SDS011;63468;52.058;4.824;2023-05-10T02:08:43;114.40;;;56.65;;
74908;SDS011;63468;52.058;4.824;2023-05-10T02:11:10;105.75;;;54.45;;
74908;SDS011;63468;52.058;4.824;2023-05-10T02:13:37;98.85;;;56.70;;
74908;SDS011;63468;52.058;4.824;2023-05-10T02:16:04;96.07;;;55.90;;
74908;SDS011;63468;52.058;4.824;2023-05-10T02:18:30;104.68;;;57.25;;
74908;SDS011;63468;52.058;4.824;2023-05-10T02:20:56;104.38;;;57.15;;
74908;SDS011;63468;52.058;4.824;2023-05-10T02:23:22;92.25;;;57.58;;
74908;SDS011;63468;52.058;4.824;2023-05-10T02:25:48;105.45;;;56.90;;
74908;SDS011;63468;52.058;4.824;2023-05-10T02:28:14;103.90;;;57.95;;
74908;SDS011;63468;52.058;4.824;2023-05-10T02:30:40;107.22;;;58.28;;
74908;SDS011;63468;52.058;4.824;2023-05-10T02:33:06;105.57;;;54.28;;
74908;SDS011;63468;52.058;4.824;2023-05-10T02:35:32;111.65;;;55.45;;
74908;SDS011;63468;52.058;4.824;2023-05-10T02:37:59;101.95;;;57.15;;
74908;SDS011;63468;52.058;4.824;2023-05-10T02:40:25;105.93;;;53.13;;
74908;SDS011;63468;52.058;4.824;2023-05-10T02:42:51;104.60;;;54.63;;
74908;SDS011;63468;52.058;4.824;2023-05-10T02:45:19;101.75;;;55.35;;
74908;SDS011;63468;52.058;4.824;2023-05-10T02:47:46;98.50;;;55.40;;
74908;SDS011;63468;52.058;4.824;2023-05-10T02:50:11;92.97;;;56.58;;
74908;SDS011;63468;52.058;4.824;2023-05-10T02:52:42;83.93;;;53.70;;
74908;SDS011;63468;52.058;4.824;2023-05-10T02:55:11;98.60;;;55.33;;
74908;SDS011;63468;52.058;4.824;2023-05-10T02:57:38;84.22;;;52.05;;
74908;SDS011;63468;52.058;4.824;2023-05-10T03:00:06;93.63;;;55.30;;
74908;SDS011;63468;52.058;4.824;2023-05-10T03:02:32;100.30;;;56.67;;
74908;SDS011;63468;52.058;4.824;2023-05-10T03:04:57;111.50;;;61.13;;
74908;SDS011;63468;52.058;4.824;2023-05-10T03:07:22;102.40;;;56.08;;
74908;SDS011;63468;52.058;4.824;2023-05-10T03:09:48;88.20;;;53.75;;
74908;SDS011;63468;52.058;4.824;2023-05-10T03:20:25;85.78;;;55.25;;
74908;SDS011;63468;52.058;4.824;2023-05-10T03:22:55;84.63;;;55.00;;
74908;SDS011;63468;52.058;4.824;2023-05-10T03:25:22;102.32;;;59.85;;
74908;SDS011;63468;52.058;4.824;2023-05-10T03:27:47;99.50;;;64.35;;
74908;SDS011;63468;52.058;4.824;2023-05-10T03:30:13;104.63;;;63.17;;
74908;SDS011;63468;52.058;4.824;2023-05-10T03:32:39;102.70;;;59.95;;
74908;SDS011;63468;52.058;4.824;2023-05-10T03:35:07;100.95;;;61.03;;
74908;SDS011;63468;52.058;4.824;2023-05-10T03:37:33;98.10;;;63.38;;
74908;SDS011;63468;52.058;4.824;2023-05-10T03:39:59;110.93;;;66.07;;
74908;SDS011;63468;52.058;4.824;2023-05-10T03:42:24;97.65;;;60.88;;
74908;SDS011;63468;52.058;4.824;2023-05-10T03:44:49;99.78;;;64.75;;
74908;SDS011;63468;52.058;4.824;2023-05-10T03:47:15;122.53;;;67.30;;
74908;SDS011;63468;52.058;4.824;2023-05-10T03:49:40;99.47;;;62.50;;
74908;SDS011;63468;52.058;4.824;2023-05-10T03:52:05;91.25;;;61.30;;
74908;SDS011;63468;52.058;4.824;2023-05-10T03:54:31;99.65;;;64.90;;
74908;SDS011;63468;52.058;4.824;2023-05-10T03:56:57;100.72;;;69.78;;
74908;SDS011;63468;52.058;4.824;2023-05-10T03:59:22;100.60;;;65.03;;
74908;SDS011;63468;52.058;4.824;2023-05-10T04:01:47;105.80;;;67.95;;
74908;SDS011;63468;52.058;4.824;2023-05-10T04:04:13;107.20;;;67.57;;
74908;SDS011;63468;52.058;4.824;2023-05-10T04:06:38;103.38;;;69.95;;
74908;SDS011;63468;52.058;4.824;2023-05-10T04:09:03;110.78;;;69.63;;
74908;SDS011;63468;52.058;4.824;2023-05-10T04:11:29;112.65;;;70.03;;
74908;SDS011;63468;52.058;4.824;2023-05-10T04:13:54;96.13;;;65.28;;
74908;SDS011;63468;52.058;4.824;2023-05-10T04:16:20;111.50;;;70.95;;
74908;SDS011;63468;52.058;4.824;2023-05-10T04:18:45;115.95;;;69.38;;
74908;SDS011;63468;52.058;4.824;2023-05-10T04:21:13;85.18;;;56.13;;
74908;SDS011;63468;52.058;4.824;2023-05-10T04:23:39;96.47;;;62.45;;
74908;SDS011;63468;52.058;4.824;2023-05-10T04:26:04;98.75;;;61.35;;
74908;SDS011;63468;52.058;4.824;2023-05-10T04:28:30;89.53;;;61.88;;
74908;SDS011;63468;52.058;4.824;2023-05-10T04:31:02;96.45;;;59.80;;
74908;SDS011;63468;52.058;4.824;2023-05-10T04:33:28;88.88;;;55.45;;
74908;SDS011;63468;52.058;4.824;2023-05-10T04:35:54;105.30;;;62.53;;
74908;SDS011;63468;52.058;4.824;2023-05-10T04:38:19;87.35;;;60.00;;
74908;SDS011;63468;52.058;4.824;2023-05-10T04:40:44;86.82;;;60.22;;
74908;SDS011;63468;52.058;4.824;2023-05-10T04:43:10;96.30;;;62.20;;
74908;SDS011;63468;52.058;4.824;2023-05-10T04:45:35;102.72;;;68.43;;
74908;SDS011;63468;52.058;4.824;2023-05-10T04:48:00;108.18;;;69.53;;
74908;SDS011;63468;52.058;4.824;2023-05-10T04:50:26;109.95;;;65.97;;
74908;SDS011;63468;52.058;4.824;2023-05-10T04:52:51;112.25;;;61.70;;
74908;SDS011;63468;52.058;4.824;2023-05-10T04:55:16;102.72;;;59.47;;
74908;SDS011;63468;52.058;4.824;2023-05-10T04:57:42;99.60;;;57.58;;
74908;SDS011;63468;52.058;4.824;2023-05-10T05:00:07;94.70;;;56.22;;
74908;SDS011;63468;52.058;4.824;2023-05-10T05:02:33;93.97;;;58.00;;
74908;SDS011;63468;52.058;4.824;2023-05-10T05:04:58;82.78;;;51.13;;
74908;SDS011;63468;52.058;4.824;2023-05-10T05:07:23;79.35;;;51.83;;
74908;SDS011;63468;52.058;4.824;2023-05-10T05:09:49;71.13;;;45.55;;
74908;SDS011;63468;52.058;4.824;2023-05-10T05:12:14;74.03;;;49.25;;
74908;SDS011;63468;52.058;4.824;2023-05-10T05:14:40;83.28;;;50.63;;
74908;SDS011;63468;52.058;4.824;2023-05-10T05:17:06;72.13;;;49.17;;
74908;SDS011;63468;52.058;4.824;2023-05-10T05:19:31;67.50;;;48.67;;
74908;SDS011;63468;52.058;4.824;2023-05-10T05:21:57;77.50;;;52.78;;
74908;SDS011;63468;52.058;4.824;2023-05-10T05:24:22;70.20;;;49.15;;
74908;SDS011;63468;52.058;4.824;2023-05-10T05:26:48;67.15;;;47.75;;
74908;SDS011;63468;52.058;4.824;2023-05-10T05:29:13;77.50;;;47.40;;
74908;SDS011;63468;52.058;4.824;2023-05-10T05:31:38;81.63;;;48.22;;
74908;SDS011;63468;52.058;4.824;2023-05-10T05:34:04;75.10;;;44.30;;
74908;SDS011;63468;52.058;4.824;2023-05-10T05:36:29;66.57;;;40.58;;
74908;SDS011;63468;52.058;4.824;2023-05-10T05:38:56;74.25;;;43.17;;
74908;SDS011;63468;52.058;4.824;2023-05-10T05:41:21;68.80;;;45.22;;
74908;SDS011;63468;52.058;4.824;2023-05-10T05:43:47;51.60;;;40.10;;
74908;SDS011;63468;52.058;4.824;2023-05-10T05:46:12;58.70;;;39.30;;
74908;SDS011;63468;52.058;4.824;2023-05-10T05:48:37;54.03;;;40.55;;
74908;SDS011;63468;52.058;4.824;2023-05-10T05:51:03;65.75;;;39.88;;
74908;SDS011;63468;52.058;4.824;2023-05-10T05:53:28;59.58;;;40.00;;
74908;SDS011;63468;52.058;4.824;2023-05-10T05:55:54;48.20;;;34.78;;
74908;SDS011;63468;52.058;4.824;2023-05-10T05:58:20;46.40;;;32.65;;
74908;SDS011;63468;52.058;4.824;2023-05-10T06:00:46;44.85;;;33.92;;
74908;SDS011;63468;52.058;4.824;2023-05-10T06:03:11;48.00;;;35.83;;
74908;SDS011;63468;52.058;4.824;2023-05-10T06:05:37;48.20;;;33.42;;
74908;SDS011;63468;52.058;4.824;2023-05-10T06:08:02;51.17;;;34.83;;
74908;SDS011;63468;52.058;4.824;2023-05-10T06:10:27;51.83;;;35.80;;
74908;SDS011;63468;52.058;4.824;2023-05-10T06:12:53;58.08;;;35.75;;
74908;SDS011;63468;52.058;4.824;2023-05-10T06:15:18;53.20;;;34.38;;
74908;SDS011;63468;52.058;4.824;2023-05-10T06:17:43;46.67;;;34.60;;
74908;SDS011;63468;52.058;4.824;2023-05-10T06:20:09;49.70;;;32.67;;
74908;SDS011;63468;52.058;4.824;2023-05-10T06:22:35;46.83;;;34.28;;
74908;SDS011;63468;52.058;4.824;2023-05-10T06:25:00;47.83;;;33.13;;
74908;SDS011;63468;52.058;4.824;2023-05-10T06:27:26;36.08;;;32.17;;
74908;SDS011;63468;52.058;4.824;2023-05-10T06:29:51;37.15;;;30.38;;
74908;SDS011;63468;52.058;4.824;2023-05-10T06:32:16;35.88;;;31.50;;
74908;SDS011;63468;52.058;4.824;2023-05-10T06:34:42;30.63;;;27.42;;
74908;SDS011;63468;52.058;4.824;2023-05-10T06:37:08;33.72;;;27.85;;
74908;SDS011;63468;52.058;4.824;2023-05-10T06:39:33;30.83;;;27.63;;
74908;SDS011;63468;52.058;4.824;2023-05-10T06:41:59;32.58;;;29.17;;
74908;SDS011;63468;52.058;4.824;2023-05-10T06:44:24;34.10;;;30.58;;
74908;SDS011;63468;52.058;4.824;2023-05-10T06:46:49;28.45;;;25.48;;
74908;SDS011;63468;52.058;4.824;2023-05-10T06:49:16;28.30;;;25.30;;
74908;SDS011;63468;52.058;4.824;2023-05-10T06:51:41;32.58;;;27.65;;
74908;SDS011;63468;52.058;4.824;2023-05-10T06:54:06;26.83;;;24.02;;
74908;SDS011;63468;52.058;4.824;2023-05-10T06:56:32;28.42;;;24.35;;
74908;SDS011;63468;52.058;4.824;2023-05-10T06:58:57;29.95;;;26.23;;
74908;SDS011;63468;52.058;4.824;2023-05-10T07:01:22;28.95;;;26.10;;
74908;SDS011;63468;52.058;4.824;2023-05-10T07:03:48;29.02;;;26.08;;
74908;SDS011;63468;52.058;4.824;2023-05-10T07:06:13;26.88;;;24.20;;
74908;SDS011;63468;52.058;4.824;2023-05-10T07:08:38;25.63;;;22.42;;
74908;SDS011;63468;52.058;4.824;2023-05-10T07:11:05;24.70;;;22.35;;
74908;SDS011;63468;52.058;4.824;2023-05-10T07:13:32;30.02;;;24.80;;
74908;SDS011;63468;52.058;4.824;2023-05-10T07:15:58;24.30;;;22.05;;
74908;SDS011;63468;52.058;4.824;2023-05-10T07:18:24;22.65;;;20.48;;
74908;SDS011;63468;52.058;4.824;2023-05-10T07:20:49;24.17;;;21.77;;
74908;SDS011;63468;52.058;4.824;2023-05-10T07:23:15;22.50;;;20.58;;
74908;SDS011;63468;52.058;4.824;2023-05-10T07:25:40;21.98;;;19.98;;
74908;SDS011;63468;52.058;4.824;2023-05-10T07:28:05;22.70;;;20.15;;
74908;SDS011;63468;52.058;4.824;2023-05-10T07:30:31;21.33;;;19.42;;
74908;SDS011;63468;52.058;4.824;2023-05-10T07:32:56;19.17;;;17.48;;
74908;SDS011;63468;52.058;4.824;2023-05-10T07:35:21;20.48;;;18.67;;
74908;SDS011;63468;52.058;4.824;2023-05-10T07:37:47;21.40;;;19.27;;
74908;SDS011;63468;52.058;4.824;2023-05-10T07:40:12;21.60;;;19.70;;
74908;SDS011;63468;52.058;4.824;2023-05-10T07:42:37;20.23;;;18.35;;
74908;SDS011;63468;52.058;4.824;2023-05-10T07:45:03;21.10;;;19.23;;
74908;SDS011;63468;52.058;4.824;2023-05-10T07:47:28;20.92;;;18.83;;
74908;SDS011;63468;52.058;4.824;2023-05-10T07:49:54;20.50;;;18.70;;
74908;SDS011;63468;52.058;4.824;2023-05-10T07:52:19;22.30;;;20.20;;
74908;SDS011;63468;52.058;4.824;2023-05-10T07:54:45;22.02;;;19.90;;
74908;SDS011;63468;52.058;4.824;2023-05-10T07:57:10;21.05;;;18.98;;
74908;SDS011;63468;52.058;4.824;2023-05-10T07:59:36;20.40;;;18.60;;
74908;SDS011;63468;52.058;4.824;2023-05-10T08:02:01;22.02;;;19.92;;
74908;SDS011;63468;52.058;4.824;2023-05-10T08:04:27;20.10;;;18.23;;
74908;SDS011;63468;52.058;4.824;2023-05-10T08:06:52;19.92;;;18.23;;
74908;SDS011;63468;52.058;4.824;2023-05-10T08:09:17;20.30;;;18.45;;
74908;SDS011;63468;52.058;4.824;2023-05-10T08:11:46;20.27;;;18.45;;
74908;SDS011;63468;52.058;4.824;2023-05-10T08:14:11;20.17;;;18.38;;
74908;SDS011;63468;52.058;4.824;2023-05-10T08:16:37;19.67;;;17.88;;
74908;SDS011;63468;52.058;4.824;2023-05-10T08:19:02;18.73;;;17.13;;
74908;SDS011;63468;52.058;4.824;2023-05-10T08:21:27;18.52;;;16.83;;
74908;SDS011;63468;52.058;4.824;2023-05-10T08:23:53;18.45;;;16.85;;
74908;SDS011;63468;52.058;4.824;2023-05-10T08:26:18;19.05;;;17.45;;
74908;SDS011;63468;52.058;4.824;2023-05-10T08:28:43;17.92;;;16.00;;
74908;SDS011;63468;52.058;4.824;2023-05-10T08:31:09;17.63;;;16.15;;
74908;SDS011;63468;52.058;4.824;2023-05-10T08:33:34;18.70;;;17.10;;
74908;SDS011;63468;52.058;4.824;2023-05-10T08:35:59;18.45;;;16.75;;
74908;SDS011;63468;52.058;4.824;2023-05-10T08:38:25;17.05;;;15.45;;
74908;SDS011;63468;52.058;4.824;2023-05-10T08:40:50;18.70;;;16.90;;
74908;SDS011;63468;52.058;4.824;2023-05-10T08:43:21;20.27;;;18.30;;
74908;SDS011;63468;52.058;4.824;2023-05-10T08:45:46;21.23;;;18.60;;
74908;SDS011;63468;52.058;4.824;2023-05-10T08:48:13;20.05;;;18.05;;
74908;SDS011;63468;52.058;4.824;2023-05-10T08:50:39;19.58;;;17.80;;
74908;SDS011;63468;52.058;4.824;2023-05-10T08:53:06;19.73;;;18.00;;
74908;SDS011;63468;52.058;4.824;2023-05-10T08:55:34;19.50;;;17.65;;
74908;SDS011;63468;52.058;4.824;2023-05-10T08:58:02;18.42;;;16.88;;
74908;SDS011;63468;52.058;4.824;2023-05-10T09:00:28;18.33;;;16.88;;
74908;SDS011;63468;52.058;4.824;2023-05-10T09:02:54;19.98;;;18.30;;
74908;SDS011;63468;52.058;4.824;2023-05-10T09:05:19;18.75;;;17.15;;
74908;SDS011;63468;52.058;4.824;2023-05-10T09:07:45;20.80;;;19.00;;
74908;SDS011;63468;52.058;4.824;2023-05-10T09:10:10;20.52;;;18.70;;
74908;SDS011;63468;52.058;4.824;2023-05-10T09:12:36;20.75;;;19.08;;
74908;SDS011;63468;52.058;4.824;2023-05-10T09:15:01;20.77;;;18.85;;
74908;SDS011;63468;52.058;4.824;2023-05-10T09:17:27;19.15;;;17.45;;
74908;SDS011;63468;52.058;4.824;2023-05-10T09:19:57;19.85;;;18.13;;
74908;SDS011;63468;52.058;4.824;2023-05-10T09:22:26;19.58;;;17.98;;
74908;SDS011;63468;52.058;4.824;2023-05-10T09:27:33;18.63;;;16.93;;
74908;SDS011;63468;52.058;4.824;2023-05-10T09:29:59;18.88;;;17.27;;
74908;SDS011;63468;52.058;4.824;2023-05-10T09:32:35;18.63;;;17.13;;
74908;SDS011;63468;52.058;4.824;2023-05-10T09:35:12;19.08;;;17.25;;
74908;SDS011;63468;52.058;4.824;2023-05-10T09:37:41;19.13;;;17.33;;
74908;SDS011;63468;52.058;4.824;2023-05-10T09:40:08;18.80;;;17.10;;
74908;SDS011;63468;52.058;4.824;2023-05-10T09:42:36;20.20;;;18.38;;
74908;SDS011;63468;52.058;4.824;2023-05-10T09:45:04;19.92;;;17.92;;
74908;SDS011;63468;52.058;4.824;2023-05-10T09:47:34;19.58;;;17.92;;
74908;SDS011;63468;52.058;4.824;2023-05-10T09:50:00;20.33;;;18.27;;
74908;SDS011;63468;52.058;4.824;2023-05-10T09:52:28;21.23;;;19.08;;
74908;SDS011;63468;52.058;4.824;2023-05-10T09:54:54;19.77;;;17.80;;
74908;SDS011;63468;52.058;4.824;2023-05-10T09:57:20;21.10;;;18.98;;
74908;SDS011;63468;52.058;4.824;2023-05-10T09:59:47;21.05;;;19.20;;
74908;SDS011;63468;52.058;4.824;2023-05-10T10:02:12;20.30;;;18.50;;
74908;SDS011;63468;52.058;4.824;2023-05-10T10:04:39;21.83;;;19.70;;
74908;SDS011;63468;52.058;4.824;2023-05-10T10:07:05;20.17;;;18.13;;
74908;SDS011;63468;52.058;4.824;2023-05-10T10:09:31;20.80;;;18.70;;
74908;SDS011;63468;52.058;4.824;2023-05-10T10:11:57;20.58;;;18.63;;
74908;SDS011;63468;52.058;4.824;2023-05-10T10:14:23;20.80;;;18.90;;
74908;SDS011;63468;52.058;4.824;2023-05-10T10:16:49;20.17;;;18.40;;
74908;SDS011;63468;52.058;4.824;2023-05-10T10:19:15;20.83;;;18.98;;
74908;SDS011;63468;52.058;4.824;2023-05-10T10:21:42;20.50;;;18.73;;
74908;SDS011;63468;52.058;4.824;2023-05-10T10:24:07;19.80;;;18.25;;
74908;SDS011;63468;52.058;4.824;2023-05-10T10:26:33;20.60;;;19.00;;
74908;SDS011;63468;52.058;4.824;2023-05-10T10:31:46;20.15;;;18.45;;
74908;SDS011;63468;52.058;4.824;2023-05-10T10:34:48;20.20;;;18.52;;
74908;SDS011;63468;52.058;4.824;2023-05-10T10:37:06;19.73;;;18.02;;
74908;SDS011;63468;52.058;4.824;2023-05-10T10:39:32;19.05;;;17.55;;
74908;SDS011;63468;52.058;4.824;2023-05-10T10:41:58;19.92;;;18.20;;
74908;SDS011;63468;52.058;4.824;2023-05-10T10:47:28;19.77;;;18.20;;
74908;SDS011;63468;52.058;4.824;2023-05-10T10:49:50;19.63;;;17.95;;
74908;SDS011;63468;52.058;4.824;2023-05-10T10:52:30;20.45;;;18.77;;
74908;SDS011;63468;52.058;4.824;2023-05-10T10:57:28;21.25;;;19.55;;
74908;SDS011;63468;52.058;4.824;2023-05-10T11:05:44;20.75;;;19.15;;
74908;SDS011;63468;52.058;4.824;2023-05-10T11:08:14;20.48;;;18.67;;
74908;SDS011;63468;52.058;4.824;2023-05-10T11:13:17;23.25;;;21.35;;
74908;SDS011;63468;52.058;4.824;2023-05-10T11:16:18;23.23;;;21.02;;
74908;SDS011;63468;52.058;4.824;2023-05-10T11:19:01;21.90;;;20.00;;
74908;SDS011;63468;52.058;4.824;2023-05-10T11:21:31;21.02;;;19.17;;
74908;SDS011;63468;52.058;4.824;2023-05-10T11:23:58;21.70;;;19.90;;
74908;SDS011;63468;52.058;4.824;2023-05-10T11:26:24;20.08;;;18.25;;
74908;SDS011;63468;52.058;4.824;2023-05-10T11:28:51;19.65;;;17.75;;
74908;SDS011;63468;52.058;4.824;2023-05-10T11:31:18;20.02;;;18.02;;
74908;SDS011;63468;52.058;4.824;2023-05-10T11:33:48;20.65;;;18.55;;
74908;SDS011;63468;52.058;4.824;2023-05-10T11:36:15;21.58;;;19.30;;
74908;SDS011;63468;52.058;4.824;2023-05-10T11:38:44;22.70;;;20.40;;
74908;SDS011;63468;52.058;4.824;2023-05-10T11:41:10;24.08;;;20.98;;
74908;SDS011;63468;52.058;4.824;2023-05-10T11:43:36;23.48;;;20.52;;
74908;SDS011;63468;52.058;4.824;2023-05-10T11:46:03;23.15;;;20.65;;
74908;SDS011;63468;52.058;4.824;2023-05-10T11:48:30;23.45;;;21.05;;
74908;SDS011;63468;52.058;4.824;2023-05-10T11:50:55;25.67;;;20.67;;
74908;SDS011;63468;52.058;4.824;2023-05-10T11:53:22;29.38;;;23.85;;
74908;SDS011;63468;52.058;4.824;2023-05-10T11:55:48;28.15;;;23.80;;
74908;SDS011;63468;52.058;4.824;2023-05-10T11:58:13;28.52;;;22.92;;
74908;SDS011;63468;52.058;4.824;2023-05-10T12:00:38;23.95;;;21.40;;
74908;SDS011;63468;52.058;4.824;2023-05-10T12:03:04;23.30;;;20.80;;
74908;SDS011;63468;52.058;4.824;2023-05-10T12:05:31;23.02;;;20.58;;
74908;SDS011;63468;52.058;4.824;2023-05-10T12:08:10;27.98;;;21.95;;
74908;SDS011;63468;52.058;4.824;2023-05-10T12:10:39;26.77;;;23.58;;
74908;SDS011;63468;52.058;4.824;2023-05-10T12:13:05;26.25;;;23.75;;
74908;SDS011;63468;52.058;4.824;2023-05-10T12:15:31;25.35;;;22.77;;
74908;SDS011;63468;52.058;4.824;2023-05-10T12:17:57;28.50;;;25.45;;
74908;SDS011;63468;52.058;4.824;2023-05-10T12:20:23;29.42;;;26.45;;
74908;SDS011;63468;52.058;4.824;2023-05-10T12:22:50;27.20;;;24.50;;
74908;SDS011;63468;52.058;4.824;2023-05-10T12:25:17;28.45;;;25.15;;
74908;SDS011;63468;52.058;4.824;2023-05-10T12:27:53;29.38;;;25.85;;
74908;SDS011;63468;52.058;4.824;2023-05-10T12:30:23;28.98;;;26.17;;
74908;SDS011;63468;52.058;4.824;2023-05-10T12:32:49;30.17;;;27.20;;
74908;SDS011;63468;52.058;4.824;2023-05-10T12:35:15;29.08;;;26.08;;
74908;SDS011;63468;52.058;4.824;2023-05-10T12:37:42;27.77;;;24.85;;
74908;SDS011;63468;52.058;4.824;2023-05-10T12:40:08;26.58;;;24.08;;
74908;SDS011;63468;52.058;4.824;2023-05-10T12:42:35;29.08;;;26.13;;
74908;SDS011;63468;52.058;4.824;2023-05-10T12:45:02;27.98;;;25.15;;
74908;SDS011;63468;52.058;4.824;2023-05-10T12:47:28;27.95;;;25.25;;
74908;SDS011;63468;52.058;4.824;2023-05-10T12:49:53;26.20;;;23.70;;
74908;SDS011;63468;52.058;4.824;2023-05-10T12:52:19;27.77;;;24.77;;
74908;SDS011;63468;52.058;4.824;2023-05-10T12:54:44;26.15;;;23.30;;
74908;SDS011;63468;52.058;4.824;2023-05-10T12:57:09;25.25;;;23.00;;
74908;SDS011;63468;52.058;4.824;2023-05-10T12:59:35;26.58;;;23.98;;
74908;SDS011;63468;52.058;4.824;2023-05-10T13:02:00;26.40;;;23.70;;
74908;SDS011;63468;52.058;4.824;2023-05-10T13:04:25;28.33;;;25.63;;
74908;SDS011;63468;52.058;4.824;2023-05-10T13:06:51;27.80;;;25.00;;
74908;SDS011;63468;52.058;4.824;2023-05-10T13:09:16;26.83;;;24.23;;
74908;SDS011;63468;52.058;4.824;2023-05-10T13:11:41;23.90;;;21.55;;
74908;SDS011;63468;52.058;4.824;2023-05-10T13:14:07;26.33;;;23.80;;
74908;SDS011;63468;52.058;4.824;2023-05-10T13:16:32;25.77;;;23.08;;
74908;SDS011;63468;52.058;4.824;2023-05-10T13:18:57;24.40;;;21.88;;
74908;SDS011;63468;52.058;4.824;2023-05-10T13:21:23;23.13;;;20.75;;
74908;SDS011;63468;52.058;4.824;2023-05-10T13:23:49;23.80;;;21.33;;
74908;SDS011;63468;52.058;4.824;2023-05-10T13:26:15;22.30;;;20.17;;
74908;SDS011;63468;52.058;4.824;2023-05-10T13:28:40;23.73;;;21.23;;
74908;SDS011;63468;52.058;4.824;2023-05-10T13:31:06;22.83;;;20.42;;
74908;SDS011;63468;52.058;4.824;2023-05-10T13:33:31;22.27;;;19.95;;
74908;SDS011;63468;52.058;4.824;2023-05-10T13:35:56;26.73;;;21.65;;
74908;SDS011;63468;52.058;4.824;2023-05-10T13:38:22;24.45;;;21.38;;
74908;SDS011;63468;52.058;4.824;2023-05-10T13:40:47;24.20;;;21.85;;
74908;SDS011;63468;52.058;4.824;2023-05-10T13:43:12;23.38;;;20.85;;
74908;SDS011;63468;52.058;4.824;2023-05-10T13:45:38;25.60;;;21.73;;
74908;SDS011;63468;52.058;4.824;2023-05-10T13:48:03;24.77;;;21.20;;
74908;SDS011;63468;52.058;4.824;2023-05-10T13:50:29;23.50;;;21.10;;
74908;SDS011;63468;52.058;4.824;2023-05-10T13:52:54;22.65;;;20.35;;
74908;SDS011;63468;52.058;4.824;2023-05-10T13:55:20;24.38;;;21.67;;
74908;SDS011;63468;52.058;4.824;2023-05-10T13:57:45;24.00;;;20.80;;
74908;SDS011;63468;52.058;4.824;2023-05-10T14:00:11;23.27;;;20.92;;
74908;SDS011;63468;52.058;4.824;2023-05-10T14:02:37;23.67;;;21.33;;
74908;SDS011;63468;52.058;4.824;2023-05-10T14:05:02;23.10;;;20.60;;
74908;SDS011;63468;52.058;4.824;2023-05-10T14:07:28;22.90;;;20.58;;
74908;SDS011;63468;52.058;4.824;2023-05-10T14:09:53;26.60;;;21.67;;
74908;SDS011;63468;52.058;4.824;2023-05-10T14:12:18;21.17;;;19.13;;
74908;SDS011;63468;52.058;4.824;2023-05-10T14:14:43;21.10;;;18.98;;
74908;SDS011;63468;52.058;4.824;2023-05-10T14:17:10;21.98;;;19.83;;
74908;SDS011;63468;52.058;4.824;2023-05-10T14:19:35;21.08;;;19.17;;
74908;SDS011;63468;52.058;4.824;2023-05-10T14:22:00;20.58;;;18.60;;
74908;SDS011;63468;52.058;4.824;2023-05-10T14:24:26;22.23;;;20.02;;
74908;SDS011;63468;52.058;4.824;2023-05-10T14:26:51;21.38;;;19.17;;
74908;SDS011;63468;52.058;4.824;2023-05-10T14:29:19;20.20;;;18.27;;
74908;SDS011;63468;52.058;4.824;2023-05-10T14:31:45;20.85;;;18.63;;
74908;SDS011;63468;52.058;4.824;2023-05-10T14:34:10;20.83;;;18.92;;
74908;SDS011;63468;52.058;4.824;2023-05-10T14:36:35;21.58;;;19.40;;
74908;SDS011;63468;52.058;4.824;2023-05-10T14:39:01;19.90;;;18.10;;
74908;SDS011;63468;52.058;4.824;2023-05-10T14:41:26;21.42;;;19.23;;
74908;SDS011;63468;52.058;4.824;2023-05-10T14:43:52;20.75;;;18.75;;
74908;SDS011;63468;52.058;4.824;2023-05-10T14:46:17;19.50;;;17.85;;
74908;SDS011;63468;52.058;4.824;2023-05-10T14:48:43;19.58;;;17.98;;
74908;SDS011;63468;52.058;4.824;2023-05-10T14:51:08;19.75;;;17.95;;
74908;SDS011;63468;52.058;4.824;2023-05-10T14:53:33;19.90;;;18.10;;
74908;SDS011;63468;52.058;4.824;2023-05-10T14:55:59;20.95;;;18.85;;